sensor_id;sensor_type;location;lat;lon;timestamp;temperature;humidity
75821;DHT22;64454;51.984;9.838;2023-01-24T00:01:42;5.10;5.40
75821;DHT22;64454;51.984;9.838;2023-01-24T00:04:10;5.10;10.70
75821;DHT22;64454;51.984;9.838;2023-01-24T00:06:37;5.00;19.80
75821;DHT22;64454;51.984;9.838;2023-01-24T00:09:04;5.00;27.70
75821;DHT22;64454;51.984;9.838;2023-01-24T00:11:31;5.00;31.00
75821;DHT22;64454;51.984;9.838;2023-01-24T00:13:58;5.10;34.90
75821;DHT22;64454;51.984;9.838;2023-01-24T00:16:25;5.10;31.50
75821;DHT22;64454;51.984;9.838;2023-01-24T00:18:51;5.20;25.80
75821;DHT22;64454;51.984;9.838;2023-01-24T00:21:22;5.20;25.60
75821;DHT22;64454;51.984;9.838;2023-01-24T00:23:51;5.20;22.60
75821;DHT22;64454;51.984;9.838;2023-01-24T00:26:21;5.30;20.60
75821;DHT22;64454;51.984;9.838;2023-01-24T00:28:49;5.30;18.70
75821;DHT22;64454;51.984;9.838;2023-01-24T00:31:16;5.30;17.20
75821;DHT22;64454;51.984;9.838;2023-01-24T00:33:43;5.30;16.60
75821;DHT22;64454;51.984;9.838;2023-01-24T00:36:10;5.30;16.20
75821;DHT22;64454;51.984;9.838;2023-01-24T00:38:39;5.30;14.50
75821;DHT22;64454;51.984;9.838;2023-01-24T00:41:06;5.30;16.00
75821;DHT22;64454;51.984;9.838;2023-01-24T00:43:33;5.30;14.30
75821;DHT22;64454;51.984;9.838;2023-01-24T00:45:59;5.30;13.40
75821;DHT22;64454;51.984;9.838;2023-01-24T00:48:27;5.30;10.00
75821;DHT22;64454;51.984;9.838;2023-01-24T00:50:53;5.30;20.50
75821;DHT22;64454;51.984;9.838;2023-01-24T00:53:20;5.30;14.40
75821;DHT22;64454;51.984;9.838;2023-01-24T00:55:49;5.30;17.70
75821;DHT22;64454;51.984;9.838;2023-01-24T00:58:16;5.30;19.00
75821;DHT22;64454;51.984;9.838;2023-01-24T01:00:43;5.40;18.40
75821;DHT22;64454;51.984;9.838;2023-01-24T01:03:12;5.40;16.30
75821;DHT22;64454;51.984;9.838;2023-01-24T01:05:40;5.40;13.60
75821;DHT22;64454;51.984;9.838;2023-01-24T01:08:07;5.30;10.90
75821;DHT22;64454;51.984;9.838;2023-01-24T01:10:34;5.10;13.80
75821;DHT22;64454;51.984;9.838;2023-01-24T01:13:04;5.20;17.30
75821;DHT22;64454;51.984;9.838;2023-01-24T01:15:32;5.20;18.60
75821;DHT22;64454;51.984;9.838;2023-01-24T01:17:59;5.20;22.30
75821;DHT22;64454;51.984;9.838;2023-01-24T01:20:26;5.20;19.30
75821;DHT22;64454;51.984;9.838;2023-01-24T01:22:53;5.20;23.20
75821;DHT22;64454;51.984;9.838;2023-01-24T01:25:20;5.20;25.60
75821;DHT22;64454;51.984;9.838;2023-01-24T01:27:47;5.30;25.40
75821;DHT22;64454;51.984;9.838;2023-01-24T01:30:15;5.30;25.40
75821;DHT22;64454;51.984;9.838;2023-01-24T01:32:42;5.40;24.80
75821;DHT22;64454;51.984;9.838;2023-01-24T01:35:09;5.40;14.40
75821;DHT22;64454;51.984;9.838;2023-01-24T01:37:36;5.30;13.10
75821;DHT22;64454;51.984;9.838;2023-01-24T01:40:04;5.30;15.70
75821;DHT22;64454;51.984;9.838;2023-01-24T01:42:43;5.30;15.00
75821;DHT22;64454;51.984;9.838;2023-01-24T01:45:33;5.30;14.00
75821;DHT22;64454;51.984;9.838;2023-01-24T01:48:09;5.40;13.90
75821;DHT22;64454;51.984;9.838;2023-01-24T01:50:45;5.40;8.90
75821;DHT22;64454;51.984;9.838;2023-01-24T01:53:18;5.30;8.30
75821;DHT22;64454;51.984;9.838;2023-01-24T01:55:49;5.40;7.10
75821;DHT22;64454;51.984;9.838;2023-01-24T01:58:22;5.30;6.00
75821;DHT22;64454;51.984;9.838;2023-01-24T02:00:50;5.30;5.70
75821;DHT22;64454;51.984;9.838;2023-01-24T02:03:20;5.30;7.20
75821;DHT22;64454;51.984;9.838;2023-01-24T02:06:06;5.30;5.10
75821;DHT22;64454;51.984;9.838;2023-01-24T02:08:37;5.30;8.50
75821;DHT22;64454;51.984;9.838;2023-01-24T02:11:07;5.30;6.20
75821;DHT22;64454;51.984;9.838;2023-01-24T02:13:53;5.30;11.20
75821;DHT22;64454;51.984;9.838;2023-01-24T02:16:41;5.30;10.70
75821;DHT22;64454;51.984;9.838;2023-01-24T02:19:17;5.40;7.50
75821;DHT22;64454;51.984;9.838;2023-01-24T02:22:03;5.40;6.40
75821;DHT22;64454;51.984;9.838;2023-01-24T02:24:42;5.40;1.00
75821;DHT22;64454;51.984;9.838;2023-01-24T02:27:17;5.30;1.00
75821;DHT22;64454;51.984;9.838;2023-01-24T02:29:44;5.20;1.60
75821;DHT22;64454;51.984;9.838;2023-01-24T02:32:11;5.20;1.00
75821;DHT22;64454;51.984;9.838;2023-01-24T02:34:40;5.20;1.00
75821;DHT22;64454;51.984;9.838;2023-01-24T02:37:11;5.20;3.20
75821;DHT22;64454;51.984;9.838;2023-01-24T02:39:45;5.20;2.90
75821;DHT22;64454;51.984;9.838;2023-01-24T02:42:18;5.20;1.00
75821;DHT22;64454;51.984;9.838;2023-01-24T02:44:51;5.20;3.80
75821;DHT22;64454;51.984;9.838;2023-01-24T02:47:22;5.10;5.50
75821;DHT22;64454;51.984;9.838;2023-01-24T02:49:57;5.10;7.60
75821;DHT22;64454;51.984;9.838;2023-01-24T02:52:24;5.00;1.00
75821;DHT22;64454;51.984;9.838;2023-01-24T02:55:09;5.00;1.00
75821;DHT22;64454;51.984;9.838;2023-01-24T02:57:38;4.90;3.80
75821;DHT22;64454;51.984;9.838;2023-01-24T03:00:22;4.90;5.30
75821;DHT22;64454;51.984;9.838;2023-01-24T03:02:49;4.90;4.40
75821;DHT22;64454;51.984;9.838;2023-01-24T03:05:16;4.80;1.50
75821;DHT22;64454;51.984;9.838;2023-01-24T03:07:43;4.90;6.20
75821;DHT22;64454;51.984;9.838;2023-01-24T03:10:11;4.90;9.10
75821;DHT22;64454;51.984;9.838;2023-01-24T03:12:40;5.00;7.00
75821;DHT22;64454;51.984;9.838;2023-01-24T03:15:26;5.00;3.30
75821;DHT22;64454;51.984;9.838;2023-01-24T03:18:11;4.90;1.00
75821;DHT22;64454;51.984;9.838;2023-01-24T03:20:56;4.90;2.40
75821;DHT22;64454;51.984;9.838;2023-01-24T03:23:41;4.80;7.10
75821;DHT22;64454;51.984;9.838;2023-01-24T03:26:26;4.70;6.10
75821;DHT22;64454;51.984;9.838;2023-01-24T03:29:12;4.60;7.30
75821;DHT22;64454;51.984;9.838;2023-01-24T03:31:57;4.50;14.90
75821;DHT22;64454;51.984;9.838;2023-01-24T03:34:41;4.50;20.60
75821;DHT22;64454;51.984;9.838;2023-01-24T03:37:16;4.40;24.10
75821;DHT22;64454;51.984;9.838;2023-01-24T03:40:06;4.50;22.70
75821;DHT22;64454;51.984;9.838;2023-01-24T03:42:34;4.50;23.10
75821;DHT22;64454;51.984;9.838;2023-01-24T03:45:14;4.60;23.70
75821;DHT22;64454;51.984;9.838;2023-01-24T03:47:44;4.60;19.50
75821;DHT22;64454;51.984;9.838;2023-01-24T03:50:21;4.60;19.30
75821;DHT22;64454;51.984;9.838;2023-01-24T03:53:07;4.70;14.80
75821;DHT22;64454;51.984;9.838;2023-01-24T03:55:34;4.70;13.20
75821;DHT22;64454;51.984;9.838;2023-01-24T03:58:01;4.80;13.00
75821;DHT22;64454;51.984;9.838;2023-01-24T04:00:30;4.80;4.90
75821;DHT22;64454;51.984;9.838;2023-01-24T04:02:57;4.80;5.00
75821;DHT22;64454;51.984;9.838;2023-01-24T04:05:24;4.80;1.00
75821;DHT22;64454;51.984;9.838;2023-01-24T04:07:52;4.70;1.00
75821;DHT22;64454;51.984;9.838;2023-01-24T04:10:19;4.60;1.00
75821;DHT22;64454;51.984;9.838;2023-01-24T04:12:46;4.60;1.00
75821;DHT22;64454;51.984;9.838;2023-01-24T04:15:15;4.70;1.00
75821;DHT22;64454;51.984;9.838;2023-01-24T04:17:46;4.70;1.00
75821;DHT22;64454;51.984;9.838;2023-01-24T04:20:13;4.70;1.00
75821;DHT22;64454;51.984;9.838;2023-01-24T04:22:41;4.70;1.00
75821;DHT22;64454;51.984;9.838;2023-01-24T04:25:09;4.70;1.00
75821;DHT22;64454;51.984;9.838;2023-01-24T04:27:36;4.70;1.00
75821;DHT22;64454;51.984;9.838;2023-01-24T04:30:04;4.70;1.00
75821;DHT22;64454;51.984;9.838;2023-01-24T04:32:32;4.70;1.00
75821;DHT22;64454;51.984;9.838;2023-01-24T04:35:00;4.70;1.00
75821;DHT22;64454;51.984;9.838;2023-01-24T04:37:29;4.80;1.00
75821;DHT22;64454;51.984;9.838;2023-01-24T04:39:56;4.80;1.00
75821;DHT22;64454;51.984;9.838;2023-01-24T04:42:22;4.80;1.00
75821;DHT22;64454;51.984;9.838;2023-01-24T04:44:49;4.70;1.00
75821;DHT22;64454;51.984;9.838;2023-01-24T04:47:16;4.70;1.00
75821;DHT22;64454;51.984;9.838;2023-01-24T04:49:43;4.70;1.00
75821;DHT22;64454;51.984;9.838;2023-01-24T04:52:12;4.80;1.00
75821;DHT22;64454;51.984;9.838;2023-01-24T04:54:40;4.80;1.00
75821;DHT22;64454;51.984;9.838;2023-01-24T04:57:07;4.80;1.00
75821;DHT22;64454;51.984;9.838;2023-01-24T04:59:38;4.90;1.00
75821;DHT22;64454;51.984;9.838;2023-01-24T05:02:05;4.90;1.00
75821;DHT22;64454;51.984;9.838;2023-01-24T05:04:32;5.00;1.00
75821;DHT22;64454;51.984;9.838;2023-01-24T05:06:59;4.90;1.00
75821;DHT22;64454;51.984;9.838;2023-01-24T05:09:27;4.90;1.00
75821;DHT22;64454;51.984;9.838;2023-01-24T05:11:53;4.90;1.00
75821;DHT22;64454;51.984;9.838;2023-01-24T05:14:20;4.90;1.00
75821;DHT22;64454;51.984;9.838;2023-01-24T05:16:47;5.00;1.00
75821;DHT22;64454;51.984;9.838;2023-01-24T05:19:14;4.90;1.00
75821;DHT22;64454;51.984;9.838;2023-01-24T05:21:41;4.80;1.00
75821;DHT22;64454;51.984;9.838;2023-01-24T05:24:08;4.60;1.00
75821;DHT22;64454;51.984;9.838;2023-01-24T05:26:37;4.60;1.00
75821;DHT22;64454;51.984;9.838;2023-01-24T05:29:03;4.60;1.00
75821;DHT22;64454;51.984;9.838;2023-01-24T05:31:30;4.60;1.00
75821;DHT22;64454;51.984;9.838;2023-01-24T05:33:57;4.60;1.00
75821;DHT22;64454;51.984;9.838;2023-01-24T05:36:24;4.50;1.00
75821;DHT22;64454;51.984;9.838;2023-01-24T05:38:51;4.60;1.00
75821;DHT22;64454;51.984;9.838;2023-01-24T05:41:19;4.50;1.00
75821;DHT22;64454;51.984;9.838;2023-01-24T05:43:49;4.50;1.00
75821;DHT22;64454;51.984;9.838;2023-01-24T05:46:18;4.50;1.00
75821;DHT22;64454;51.984;9.838;2023-01-24T05:48:46;4.50;1.00
75821;DHT22;64454;51.984;9.838;2023-01-24T05:51:16;4.50;1.00
75821;DHT22;64454;51.984;9.838;2023-01-24T05:53:45;4.60;1.00
75821;DHT22;64454;51.984;9.838;2023-01-24T05:56:13;4.60;1.00
75821;DHT22;64454;51.984;9.838;2023-01-24T05:58:42;4.60;1.00
75821;DHT22;64454;51.984;9.838;2023-01-24T06:01:13;4.70;1.00
75821;DHT22;64454;51.984;9.838;2023-01-24T06:03:43;4.70;1.00
75821;DHT22;64454;51.984;9.838;2023-01-24T06:06:12;4.60;1.00
75821;DHT22;64454;51.984;9.838;2023-01-24T06:08:41;4.50;1.00
75821;DHT22;64454;51.984;9.838;2023-01-24T06:11:10;4.50;1.00
75821;DHT22;64454;51.984;9.838;2023-01-24T06:13:39;4.50;1.00
75821;DHT22;64454;51.984;9.838;2023-01-24T06:16:07;4.50;1.00
75821;DHT22;64454;51.984;9.838;2023-01-24T06:18:38;4.60;1.00
75821;DHT22;64454;51.984;9.838;2023-01-24T06:21:07;4.60;1.00
75821;DHT22;64454;51.984;9.838;2023-01-24T06:23:42;4.70;1.00
75821;DHT22;64454;51.984;9.838;2023-01-24T06:26:10;4.70;1.00
75821;DHT22;64454;51.984;9.838;2023-01-24T06:28:37;4.70;1.00
75821;DHT22;64454;51.984;9.838;2023-01-24T06:31:14;4.70;1.00
75821;DHT22;64454;51.984;9.838;2023-01-24T06:34:06;4.70;1.00
75821;DHT22;64454;51.984;9.838;2023-01-24T06:36:53;4.70;1.00
75821;DHT22;64454;51.984;9.838;2023-01-24T06:39:29;4.60;1.00
75821;DHT22;64454;51.984;9.838;2023-01-24T06:41:56;4.50;1.00
75821;DHT22;64454;51.984;9.838;2023-01-24T06:44:24;4.50;1.00
75821;DHT22;64454;51.984;9.838;2023-01-24T06:46:51;4.50;1.00
75821;DHT22;64454;51.984;9.838;2023-01-24T06:49:19;4.50;1.00
75821;DHT22;64454;51.984;9.838;2023-01-24T06:51:49;4.50;1.00
75821;DHT22;64454;51.984;9.838;2023-01-24T06:54:16;4.30;1.00
75821;DHT22;64454;51.984;9.838;2023-01-24T06:56:44;4.40;1.00
75821;DHT22;64454;51.984;9.838;2023-01-24T06:59:10;4.40;1.00
75821;DHT22;64454;51.984;9.838;2023-01-24T07:01:37;4.40;1.00
75821;DHT22;64454;51.984;9.838;2023-01-24T07:04:04;4.40;1.00
75821;DHT22;64454;51.984;9.838;2023-01-24T07:06:32;4.40;1.00
75821;DHT22;64454;51.984;9.838;2023-01-24T07:08:59;4.40;1.00
75821;DHT22;64454;51.984;9.838;2023-01-24T07:11:26;4.40;1.00
75821;DHT22;64454;51.984;9.838;2023-01-24T07:13:53;4.50;1.00
75821;DHT22;64454;51.984;9.838;2023-01-24T07:16:20;4.40;1.00
75821;DHT22;64454;51.984;9.838;2023-01-24T07:18:47;4.40;1.00
75821;DHT22;64454;51.984;9.838;2023-01-24T07:21:15;4.40;1.00
75821;DHT22;64454;51.984;9.838;2023-01-24T07:23:45;4.50;1.00
75821;DHT22;64454;51.984;9.838;2023-01-24T07:26:14;4.50;1.00
75821;DHT22;64454;51.984;9.838;2023-01-24T07:28:41;4.60;1.00
75821;DHT22;64454;51.984;9.838;2023-01-24T07:31:10;4.70;1.00
75821;DHT22;64454;51.984;9.838;2023-01-24T07:33:40;4.60;1.00
75821;DHT22;64454;51.984;9.838;2023-01-24T07:36:11;4.60;1.00
75821;DHT22;64454;51.984;9.838;2023-01-24T07:38:39;4.50;1.00
75821;DHT22;64454;51.984;9.838;2023-01-24T07:41:08;4.40;1.00
75821;DHT22;64454;51.984;9.838;2023-01-24T07:43:36;4.40;1.00
75821;DHT22;64454;51.984;9.838;2023-01-24T07:46:03;4.30;1.00
75821;DHT22;64454;51.984;9.838;2023-01-24T07:48:30;4.30;1.00
75821;DHT22;64454;51.984;9.838;2023-01-24T07:50:58;4.40;1.00
75821;DHT22;64454;51.984;9.838;2023-01-24T07:53:25;4.40;1.00
75821;DHT22;64454;51.984;9.838;2023-01-24T07:55:53;4.50;1.00
75821;DHT22;64454;51.984;9.838;2023-01-24T07:58:21;4.50;1.00
75821;DHT22;64454;51.984;9.838;2023-01-24T08:00:48;4.40;1.00
75821;DHT22;64454;51.984;9.838;2023-01-24T08:03:15;4.50;1.00
75821;DHT22;64454;51.984;9.838;2023-01-24T08:05:41;4.40;1.00
75821;DHT22;64454;51.984;9.838;2023-01-24T08:08:08;4.50;1.00
75821;DHT22;64454;51.984;9.838;2023-01-24T08:10:35;4.50;1.00
75821;DHT22;64454;51.984;9.838;2023-01-24T08:13:02;4.50;1.00
75821;DHT22;64454;51.984;9.838;2023-01-24T08:15:30;4.60;1.00
75821;DHT22;64454;51.984;9.838;2023-01-24T08:17:57;4.60;1.00
75821;DHT22;64454;51.984;9.838;2023-01-24T08:20:24;4.60;1.00
75821;DHT22;64454;51.984;9.838;2023-01-24T08:22:53;4.60;1.00
75821;DHT22;64454;51.984;9.838;2023-01-24T08:25:21;4.70;1.00
75821;DHT22;64454;51.984;9.838;2023-01-24T08:27:48;4.70;1.00
75821;DHT22;64454;51.984;9.838;2023-01-24T08:30:15;4.70;1.00
75821;DHT22;64454;51.984;9.838;2023-01-24T08:32:43;4.60;1.00
75821;DHT22;64454;51.984;9.838;2023-01-24T08:35:11;4.60;1.00
75821;DHT22;64454;51.984;9.838;2023-01-24T08:37:38;4.40;1.00
75821;DHT22;64454;51.984;9.838;2023-01-24T08:40:06;4.50;1.00
75821;DHT22;64454;51.984;9.838;2023-01-24T08:42:35;4.50;1.00
75821;DHT22;64454;51.984;9.838;2023-01-24T08:45:02;4.50;1.00
75821;DHT22;64454;51.984;9.838;2023-01-24T08:47:30;4.50;1.00
75821;DHT22;64454;51.984;9.838;2023-01-24T08:49:58;4.60;1.00
75821;DHT22;64454;51.984;9.838;2023-01-24T08:52:24;4.60;1.00
75821;DHT22;64454;51.984;9.838;2023-01-24T08:54:51;4.60;1.00
75821;DHT22;64454;51.984;9.838;2023-01-24T08:57:18;4.60;1.00
75821;DHT22;64454;51.984;9.838;2023-01-24T08:59:45;4.60;1.00
75821;DHT22;64454;51.984;9.838;2023-01-24T09:02:13;4.60;1.00
75821;DHT22;64454;51.984;9.838;2023-01-24T09:04:42;4.70;1.00
75821;DHT22;64454;51.984;9.838;2023-01-24T09:07:10;4.60;1.00
75821;DHT22;64454;51.984;9.838;2023-01-24T09:09:38;4.60;1.00
75821;DHT22;64454;51.984;9.838;2023-01-24T09:12:05;4.70;1.00
75821;DHT22;64454;51.984;9.838;2023-01-24T09:14:32;4.70;1.00
75821;DHT22;64454;51.984;9.838;2023-01-24T09:16:59;4.70;1.00
75821;DHT22;64454;51.984;9.838;2023-01-24T09:19:26;4.70;1.00
75821;DHT22;64454;51.984;9.838;2023-01-24T09:21:53;4.60;1.00
75821;DHT22;64454;51.984;9.838;2023-01-24T09:24:23;4.60;1.00
75821;DHT22;64454;51.984;9.838;2023-01-24T09:26:51;4.60;1.00
75821;DHT22;64454;51.984;9.838;2023-01-24T09:29:18;4.70;1.00
75821;DHT22;64454;51.984;9.838;2023-01-24T09:31:46;4.60;1.00
75821;DHT22;64454;51.984;9.838;2023-01-24T09:34:14;4.60;1.00
75821;DHT22;64454;51.984;9.838;2023-01-24T09:36:41;4.60;1.00
75821;DHT22;64454;51.984;9.838;2023-01-24T09:39:08;4.60;1.00
75821;DHT22;64454;51.984;9.838;2023-01-24T09:41:51;4.60;1.00
75821;DHT22;64454;51.984;9.838;2023-01-24T09:44:34;4.60;1.00
75821;DHT22;64454;51.984;9.838;2023-01-24T09:47:16;4.50;1.00
75821;DHT22;64454;51.984;9.838;2023-01-24T09:49:50;4.50;1.00
75821;DHT22;64454;51.984;9.838;2023-01-24T09:52:29;4.50;1.00
75821;DHT22;64454;51.984;9.838;2023-01-24T09:55:05;4.60;1.00
75821;DHT22;64454;51.984;9.838;2023-01-24T09:57:48;4.60;1.00
75821;DHT22;64454;51.984;9.838;2023-01-24T10:00:22;4.60;1.00
75821;DHT22;64454;51.984;9.838;2023-01-24T10:02:52;4.50;1.00
75821;DHT22;64454;51.984;9.838;2023-01-24T10:05:21;4.40;1.00
75821;DHT22;64454;51.984;9.838;2023-01-24T10:08:15;4.40;1.00
75821;DHT22;64454;51.984;9.838;2023-01-24T10:10:53;4.50;1.00
75821;DHT22;64454;51.984;9.838;2023-01-24T10:13:50;4.60;1.00
75821;DHT22;64454;51.984;9.838;2023-01-24T10:16:55;4.70;1.00
75821;DHT22;64454;51.984;9.838;2023-01-24T10:19:56;4.70;1.00
75821;DHT22;64454;51.984;9.838;2023-01-24T10:22:49;4.80;1.00
75821;DHT22;64454;51.984;9.838;2023-01-24T10:25:28;4.70;1.00
75821;DHT22;64454;51.984;9.838;2023-01-24T10:28:02;4.50;1.00
75821;DHT22;64454;51.984;9.838;2023-01-24T10:30:38;4.40;1.00
75821;DHT22;64454;51.984;9.838;2023-01-24T10:33:14;4.50;1.00
75821;DHT22;64454;51.984;9.838;2023-01-24T10:35:52;4.50;1.00
75821;DHT22;64454;51.984;9.838;2023-01-24T10:38:22;4.50;1.00
75821;DHT22;64454;51.984;9.838;2023-01-24T10:40:51;4.50;1.00
75821;DHT22;64454;51.984;9.838;2023-01-24T10:43:23;4.50;1.00
75821;DHT22;64454;51.984;9.838;2023-01-24T10:46:03;4.60;1.00
75821;DHT22;64454;51.984;9.838;2023-01-24T10:48:41;4.60;1.00
75821;DHT22;64454;51.984;9.838;2023-01-24T10:51:13;4.50;1.00
75821;DHT22;64454;51.984;9.838;2023-01-24T10:53:41;4.50;1.00
75821;DHT22;64454;51.984;9.838;2023-01-24T10:56:10;4.50;1.00
75821;DHT22;64454;51.984;9.838;2023-01-24T10:58:41;4.40;1.00
75821;DHT22;64454;51.984;9.838;2023-01-24T11:01:17;4.50;1.00
75821;DHT22;64454;51.984;9.838;2023-01-24T11:03:47;4.50;1.00
75821;DHT22;64454;51.984;9.838;2023-01-24T11:06:23;4.60;1.00
75821;DHT22;64454;51.984;9.838;2023-01-24T11:09:04;4.50;1.00
75821;DHT22;64454;51.984;9.838;2023-01-24T11:11:41;4.60;1.00
75821;DHT22;64454;51.984;9.838;2023-01-24T11:14:13;4.70;1.00
75821;DHT22;64454;51.984;9.838;2023-01-24T11:16:46;4.80;1.00
75821;DHT22;64454;51.984;9.838;2023-01-24T11:19:26;4.90;1.00
75821;DHT22;64454;51.984;9.838;2023-01-24T11:21:56;4.90;1.00
75821;DHT22;64454;51.984;9.838;2023-01-24T11:24:26;5.00;1.00
75821;DHT22;64454;51.984;9.838;2023-01-24T11:26:57;5.00;1.00
75821;DHT22;64454;51.984;9.838;2023-01-24T11:29:28;5.10;1.00
75821;DHT22;64454;51.984;9.838;2023-01-24T11:31:58;5.10;1.00
75821;DHT22;64454;51.984;9.838;2023-01-24T11:34:42;5.00;1.00
75821;DHT22;64454;51.984;9.838;2023-01-24T11:37:44;4.80;1.00
75821;DHT22;64454;51.984;9.838;2023-01-24T11:40:24;4.80;1.00
75821;DHT22;64454;51.984;9.838;2023-01-24T11:43:18;4.70;1.00
75821;DHT22;64454;51.984;9.838;2023-01-24T11:46:10;4.70;1.00
75821;DHT22;64454;51.984;9.838;2023-01-24T11:48:52;4.60;1.00
75821;DHT22;64454;51.984;9.838;2023-01-24T11:51:33;4.40;1.00
75821;DHT22;64454;51.984;9.838;2023-01-24T11:54:38;4.20;1.00
75821;DHT22;64454;51.984;9.838;2023-01-24T11:57:20;4.50;1.00
75821;DHT22;64454;51.984;9.838;2023-01-24T12:03:09;4.50;1.00
75821;DHT22;64454;51.984;9.838;2023-01-24T12:06:03;4.40;1.00
75821;DHT22;64454;51.984;9.838;2023-01-24T12:08:49;4.30;1.00
75821;DHT22;64454;51.984;9.838;2023-01-24T12:11:30;4.20;1.00
75821;DHT22;64454;51.984;9.838;2023-01-24T12:17:32;4.10;1.00
75821;DHT22;64454;51.984;9.838;2023-01-24T12:20:30;4.10;1.00
75821;DHT22;64454;51.984;9.838;2023-01-24T12:23:20;4.00;1.00
75821;DHT22;64454;51.984;9.838;2023-01-24T12:26:09;4.10;1.00
75821;DHT22;64454;51.984;9.838;2023-01-24T12:28:43;4.10;1.00
75821;DHT22;64454;51.984;9.838;2023-01-24T12:31:24;4.30;1.00
75821;DHT22;64454;51.984;9.838;2023-01-24T12:33:57;4.40;1.00
75821;DHT22;64454;51.984;9.838;2023-01-24T12:36:35;4.50;1.00
75821;DHT22;64454;51.984;9.838;2023-01-24T12:39:14;4.60;1.00
75821;DHT22;64454;51.984;9.838;2023-01-24T12:41:51;4.60;1.00
75821;DHT22;64454;51.984;9.838;2023-01-24T12:44:28;4.60;1.00
75821;DHT22;64454;51.984;9.838;2023-01-24T12:47:15;4.40;1.00
75821;DHT22;64454;51.984;9.838;2023-01-24T12:49:55;4.40;1.00
75821;DHT22;64454;51.984;9.838;2023-01-24T12:52:35;4.30;1.00
75821;DHT22;64454;51.984;9.838;2023-01-24T12:55:14;4.20;1.00
75821;DHT22;64454;51.984;9.838;2023-01-24T12:57:48;4.30;1.00
75821;DHT22;64454;51.984;9.838;2023-01-24T13:00:18;4.30;1.00
75821;DHT22;64454;51.984;9.838;2023-01-24T13:03:22;4.20;1.00
75821;DHT22;64454;51.984;9.838;2023-01-24T13:06:02;4.20;1.00
75821;DHT22;64454;51.984;9.838;2023-01-24T13:08:47;4.00;1.00
75821;DHT22;64454;51.984;9.838;2023-01-24T13:11:26;3.90;1.00
75821;DHT22;64454;51.984;9.838;2023-01-24T13:14:14;3.70;1.00
75821;DHT22;64454;51.984;9.838;2023-01-24T13:17:01;3.70;1.00
75821;DHT22;64454;51.984;9.838;2023-01-24T13:20:05;3.70;1.00
75821;DHT22;64454;51.984;9.838;2023-01-24T13:22:47;3.80;1.00
75821;DHT22;64454;51.984;9.838;2023-01-24T13:25:40;3.90;1.00
75821;DHT22;64454;51.984;9.838;2023-01-24T13:28:38;4.00;1.00
75821;DHT22;64454;51.984;9.838;2023-01-24T13:31:19;4.10;1.00
75821;DHT22;64454;51.984;9.838;2023-01-24T13:33:54;4.00;1.00
75821;DHT22;64454;51.984;9.838;2023-01-24T13:36:28;4.00;1.00
75821;DHT22;64454;51.984;9.838;2023-01-24T13:38:58;4.10;1.00
75821;DHT22;64454;51.984;9.838;2023-01-24T13:41:34;4.10;1.00
75821;DHT22;64454;51.984;9.838;2023-01-24T13:44:26;4.20;1.00
75821;DHT22;64454;51.984;9.838;2023-01-24T13:50:16;4.30;1.00
75821;DHT22;64454;51.984;9.838;2023-01-24T13:52:49;4.40;1.00
75821;DHT22;64454;51.984;9.838;2023-01-24T13:58:28;4.60;1.00
75821;DHT22;64454;51.984;9.838;2023-01-24T14:00:59;4.50;1.00
75821;DHT22;64454;51.984;9.838;2023-01-24T14:03:33;4.50;1.00
75821;DHT22;64454;51.984;9.838;2023-01-24T14:06:20;4.50;1.00
75821;DHT22;64454;51.984;9.838;2023-01-24T14:08:58;4.60;1.00
75821;DHT22;64454;51.984;9.838;2023-01-24T14:11:37;4.60;1.00
75821;DHT22;64454;51.984;9.838;2023-01-24T14:14:33;4.50;1.00
75821;DHT22;64454;51.984;9.838;2023-01-24T14:20:22;4.50;1.00
75821;DHT22;64454;51.984;9.838;2023-01-24T14:22:59;4.60;1.00
75821;DHT22;64454;51.984;9.838;2023-01-24T14:25:38;4.60;1.00
75821;DHT22;64454;51.984;9.838;2023-01-24T14:28:21;4.70;1.00
75821;DHT22;64454;51.984;9.838;2023-01-24T14:30:55;4.70;1.00
75821;DHT22;64454;51.984;9.838;2023-01-24T14:33:31;4.70;1.00
75821;DHT22;64454;51.984;9.838;2023-01-24T14:36:13;4.70;1.00
75821;DHT22;64454;51.984;9.838;2023-01-24T14:38:47;4.70;1.00
75821;DHT22;64454;51.984;9.838;2023-01-24T14:41:20;4.60;1.00
75821;DHT22;64454;51.984;9.838;2023-01-24T14:43:48;4.50;1.00
75821;DHT22;64454;51.984;9.838;2023-01-24T14:46:20;4.60;1.00
75821;DHT22;64454;51.984;9.838;2023-01-24T14:48:51;4.60;1.00
75821;DHT22;64454;51.984;9.838;2023-01-24T14:51:21;4.60;1.00
75821;DHT22;64454;51.984;9.838;2023-01-24T14:53:50;4.60;1.00
75821;DHT22;64454;51.984;9.838;2023-01-24T14:56:19;4.50;1.00
75821;DHT22;64454;51.984;9.838;2023-01-24T14:58:47;4.40;1.00
75821;DHT22;64454;51.984;9.838;2023-01-24T15:01:25;4.30;1.00
75821;DHT22;64454;51.984;9.838;2023-01-24T15:03:56;4.40;1.00
75821;DHT22;64454;51.984;9.838;2023-01-24T15:06:25;4.40;1.00
75821;DHT22;64454;51.984;9.838;2023-01-24T15:08:54;4.40;1.00
75821;DHT22;64454;51.984;9.838;2023-01-24T15:11:25;4.40;1.00
75821;DHT22;64454;51.984;9.838;2023-01-24T15:13:56;4.40;1.00
75821;DHT22;64454;51.984;9.838;2023-01-24T15:16:33;4.40;1.00
75821;DHT22;64454;51.984;9.838;2023-01-24T15:19:09;4.30;1.00
75821;DHT22;64454;51.984;9.838;2023-01-24T15:21:43;4.30;1.00
75821;DHT22;64454;51.984;9.838;2023-01-24T15:24:19;4.20;1.00
75821;DHT22;64454;51.984;9.838;2023-01-24T15:26:48;4.20;1.00
75821;DHT22;64454;51.984;9.838;2023-01-24T15:29:42;4.20;1.00
75821;DHT22;64454;51.984;9.838;2023-01-24T15:32:28;4.20;1.00
75821;DHT22;64454;51.984;9.838;2023-01-24T15:38:29;4.30;1.00
75821;DHT22;64454;51.984;9.838;2023-01-24T15:41:16;4.30;1.00
75821;DHT22;64454;51.984;9.838;2023-01-24T15:43:54;4.40;1.00
75821;DHT22;64454;51.984;9.838;2023-01-24T15:46:30;4.40;1.00
75821;DHT22;64454;51.984;9.838;2023-01-24T15:49:19;4.40;1.00
75821;DHT22;64454;51.984;9.838;2023-01-24T15:52:17;4.40;1.00
75821;DHT22;64454;51.984;9.838;2023-01-24T15:54:48;4.40;1.00
75821;DHT22;64454;51.984;9.838;2023-01-24T15:57:21;4.30;1.00
75821;DHT22;64454;51.984;9.838;2023-01-24T15:59:52;4.30;1.00
75821;DHT22;64454;51.984;9.838;2023-01-24T16:02:22;4.40;1.00
75821;DHT22;64454;51.984;9.838;2023-01-24T16:04:49;4.40;1.00
75821;DHT22;64454;51.984;9.838;2023-01-24T16:07:18;4.40;1.00
75821;DHT22;64454;51.984;9.838;2023-01-24T16:09:45;4.40;1.00
75821;DHT22;64454;51.984;9.838;2023-01-24T16:12:14;4.40;1.00
75821;DHT22;64454;51.984;9.838;2023-01-24T16:14:47;4.30;1.00
75821;DHT22;64454;51.984;9.838;2023-01-24T16:17:18;4.40;1.00
75821;DHT22;64454;51.984;9.838;2023-01-24T16:19:46;4.30;1.00
75821;DHT22;64454;51.984;9.838;2023-01-24T16:22:12;4.30;1.00
75821;DHT22;64454;51.984;9.838;2023-01-24T16:24:42;4.20;1.00
75821;DHT22;64454;51.984;9.838;2023-01-24T16:27:10;4.20;1.00
75821;DHT22;64454;51.984;9.838;2023-01-24T16:29:39;4.20;1.00
75821;DHT22;64454;51.984;9.838;2023-01-24T16:32:18;4.20;1.00
75821;DHT22;64454;51.984;9.838;2023-01-24T16:34:47;4.20;1.00
75821;DHT22;64454;51.984;9.838;2023-01-24T16:37:14;4.30;1.00
75821;DHT22;64454;51.984;9.838;2023-01-24T16:39:44;4.30;1.00
75821;DHT22;64454;51.984;9.838;2023-01-24T16:42:14;4.30;1.00
75821;DHT22;64454;51.984;9.838;2023-01-24T16:44:42;4.20;1.00
75821;DHT22;64454;51.984;9.838;2023-01-24T16:47:09;4.20;1.00
75821;DHT22;64454;51.984;9.838;2023-01-24T16:49:36;4.20;1.00
75821;DHT22;64454;51.984;9.838;2023-01-24T16:52:03;4.20;1.00
75821;DHT22;64454;51.984;9.838;2023-01-24T16:54:29;4.10;1.00
75821;DHT22;64454;51.984;9.838;2023-01-24T16:56:58;4.00;1.00